Time;durP1;ratioP1;P1;durP2;ratioP2;P2;SDS_P1;SDS_P2;PMS_P1;PMS_P2;Temp;Humidity;BMP_temperature;BMP_pressure;BME280_temperature;BME280_humidity;BME280_pressure;Samples;Min_cycle;Max_cycle;Signal;HPM_P1;HPM_P2
2021/12/21 00:00:43;;;;;;;14.32;3.83;;;4.20;99.90;;;;;;5090578;28;20044;-69
2021/12/21 00:03:12;;;;;;;12.80;3.30;;;4.20;99.90;;;;;;5090582;28;20052;-68
2021/12/21 00:05:50;;;;;;;9.70;3.35;;;4.20;99.90;;;;;;5090356;28;20044;-66
2021/12/21 00:08:20;;;;;;;13.52;3.67;;;4.20;99.90;;;;;;5072816;28;20050;-69
2021/12/21 00:11:09;;;;;;;18.55;4.05;;;4.20;99.90;;;;;;5090247;28;20387;-68
2021/12/21 00:13:55;;;;;;;13.77;3.78;;;4.20;99.90;;;;;;5072384;28;20055;-68
2021/12/21 00:16:47;;;;;;;11.45;3.65;;;4.20;99.90;;;;;;5089192;28;20062;-67
2021/12/21 00:21:56;;;;;;;14.98;3.30;;;4.20;99.90;;;;;;5090579;28;20415;-69
2021/12/21 00:24:30;;;;;;;15.52;5.22;;;4.20;99.90;;;;;;5088730;28;20043;-67
2021/12/21 00:27:00;;;;;;;11.43;2.80;;;4.20;99.90;;;;;;5084304;28;20045;-68
2021/12/21 00:29:28;;;;;;;19.30;5.72;;;4.20;99.90;;;;;;5083729;28;20036;-64
2021/12/21 00:31:56;;;;;;;14.23;3.17;;;4.20;99.90;;;;;;5090134;28;20044;-66
2021/12/21 00:34:25;;;;;;;10.65;2.83;;;4.20;99.90;;;;;;5089680;28;20189;-69
2021/12/21 00:36:53;;;;;;;9.80;2.78;;;4.20;99.90;;;;;;5089755;28;20047;-67
2021/12/21 00:39:24;;;;;;;13.48;3.00;;;4.10;99.90;;;;;;5089411;28;20052;-67
2021/12/21 00:41:51;;;;;;;10.40;2.97;;;4.10;99.90;;;;;;5087333;28;20048;-63
2021/12/21 00:44:19;;;;;;;14.52;3.25;;;4.10;99.90;;;;;;5083664;28;20040;-65
2021/12/21 00:46:47;;;;;;;8.10;3.58;;;4.10;99.90;;;;;;5089728;28;20044;-61
2021/12/21 00:49:16;;;;;;;8.93;2.65;;;4.10;99.90;;;;;;5088479;28;20036;-67
2021/12/21 00:51:46;;;;;;;9.50;2.55;;;4.10;99.90;;;;;;5089746;28;20511;-61
2021/12/21 00:54:16;;;;;;;6.20;3.00;;;4.10;99.90;;;;;;5089268;28;20055;-64
2021/12/21 00:56:44;;;;;;;15.77;3.38;;;4.10;99.90;;;;;;5089759;28;20043;-70
2021/12/21 00:59:12;;;;;;;10.98;3.28;;;4.10;99.90;;;;;;5083165;28;20048;-68
2021/12/21 01:01:41;;;;;;;11.98;3.53;;;4.10;99.90;;;;;;5087631;28;20040;-69
2021/12/21 01:04:21;;;;;;;10.82;3.75;;;4.10;99.90;;;;;;5086112;28;20052;-62
2021/12/21 01:07:08;;;;;;;14.50;3.72;;;4.10;99.90;;;;;;5087156;28;20419;-60
2021/12/21 01:12:12;;;;;;;8.15;3.67;;;4.10;99.90;;;;;;5085855;28;20052;-61
2021/12/21 01:17:33;;;;;;;12.93;4.03;;;4.00;99.90;;;;;;5089275;28;20048;-60
2021/12/21 01:20:09;;;;;;;14.55;5.00;;;4.00;99.90;;;;;;5089142;28;20060;-60
2021/12/21 01:23:28;;;;;;;19.90;4.53;;;4.10;99.90;;;;;;5087590;28;20056;-60
2021/12/21 01:25:47;;;;;;;11.45;4.53;;;4.10;99.90;;;;;;5088307;28;20487;-59
2021/12/21 01:36:31;;;;;;;17.08;5.00;;;4.10;99.90;;;;;;5088549;28;20059;-60
2021/12/21 01:41:36;;;;;;;9.93;4.95;;;4.10;99.90;;;;;;5087297;28;20574;-59
2021/12/21 01:44:40;;;;;;;12.15;4.68;;;4.00;99.90;;;;;;5081702;28;20048;-61
2021/12/21 01:49:53;;;;;;;13.10;5.72;;;4.00;99.90;;;;;;5088601;28;20036;-61
2021/12/21 01:52:24;;;;;;;17.33;5.32;;;4.00;99.90;;;;;;5088433;28;20477;-66
2021/12/21 01:54:53;;;;;;;13.60;5.03;;;4.00;99.90;;;;;;5087921;28;20055;-62
2021/12/21 01:57:22;;;;;;;14.55;6.32;;;4.10;99.90;;;;;;5086167;28;20048;-60
2021/12/21 01:59:51;;;;;;;13.88;5.70;;;4.00;99.90;;;;;;5086966;28;20052;-60
2021/12/21 02:02:20;;;;;;;26.92;6.45;;;4.10;99.90;;;;;;5088587;28;20055;-61
2021/12/21 02:04:49;;;;;;;18.60;5.72;;;4.00;99.90;;;;;;5087768;28;20052;-60
2021/12/21 02:07:17;;;;;;;17.95;6.57;;;4.00;99.90;;;;;;5088672;28;20512;-59
2021/12/21 02:09:44;;;;;;;20.05;6.18;;;4.00;99.90;;;;;;5088635;28;20048;-59
2021/12/21 02:12:17;;;;;;;24.85;7.13;;;4.00;99.90;;;;;;5087804;28;20052;-60
2021/12/21 02:14:52;;;;;;;13.55;5.30;;;4.00;99.90;;;;;;5082243;28;20053;-61
2021/12/21 02:19:57;;;;;;;25.55;5.90;;;4.00;99.90;;;;;;5087947;28;20475;-61
2021/12/21 02:22:28;;;;;;;16.23;5.40;;;4.00;99.90;;;;;;5087839;28;20047;-62
2021/12/21 02:25:33;;;;;;;21.27;5.80;;;4.00;99.90;;;;;;5086712;28;20044;-61
2021/12/21 02:28:09;;;;;;;13.45;5.55;;;4.00;99.90;;;;;;5084282;28;20059;-59
2021/12/21 02:30:42;;;;;;;18.80;6.72;;;4.00;99.90;;;;;;5065981;28;20484;-63
2021/12/21 02:33:12;;;;;;;19.42;6.45;;;4.00;99.90;;;;;;5049851;28;20492;-60
2021/12/21 02:35:41;;;;;;;16.60;5.78;;;4.00;99.90;;;;;;5051351;28;20044;-59
2021/12/21 02:38:10;;;;;;;17.67;6.30;;;4.00;99.90;;;;;;5062748;28;20055;-59
2021/12/21 02:40:39;;;;;;;20.42;7.68;;;4.00;99.90;;;;;;5091365;28;20052;-64
2021/12/21 02:43:09;;;;;;;23.13;7.85;;;4.00;99.90;;;;;;5080682;28;20049;-60
2021/12/21 02:45:38;;;;;;;15.77;6.53;;;4.00;99.90;;;;;;5053564;28;20044;-62
2021/12/21 02:48:07;;;;;;;18.10;6.40;;;4.00;99.90;;;;;;5071237;28;20067;-59
2021/12/21 02:50:38;;;;;;;20.42;6.53;;;4.00;99.90;;;;;;5070087;28;20049;-59
2021/12/21 03:43:48;;;;;;;12.35;5.15;;;3.90;99.90;;;;;;5054272;28;20052;-60
2021/12/21 03:46:16;;;;;;;17.02;5.20;;;3.90;99.90;;;;;;5073966;28;20407;-62
2021/12/21 03:48:47;;;;;;;16.98;5.15;;;3.90;99.90;;;;;;5072798;28;20396;-59
2021/12/21 03:51:18;;;;;;;18.73;5.97;;;3.90;99.90;;;;;;5072880;28;20381;-60
2021/12/21 03:53:47;;;;;;;23.17;5.80;;;3.90;99.90;;;;;;5074489;28;20045;-59
2021/12/21 03:58:49;;;;;;;16.23;5.50;;;3.80;99.90;;;;;;5073689;28;20618;-60
2021/12/21 04:01:17;;;;;;;17.80;3.60;;;3.80;99.90;;;;;;5072483;28;20420;-60
2021/12/21 04:03:46;;;;;;;9.95;4.07;;;3.80;99.90;;;;;;5073841;28;20049;-60
2021/12/21 04:06:14;;;;;;;13.27;4.70;;;3.80;99.90;;;;;;5073527;28;20044;-61
2021/12/21 04:08:41;;;;;;;12.85;4.43;;;3.80;99.90;;;;;;5073667;28;20257;-60
2021/12/21 04:11:09;;;;;;;11.38;3.72;;;3.80;99.90;;;;;;5073543;28;20059;-60
2021/12/21 04:13:37;;;;;;;16.77;3.65;;;3.80;99.90;;;;;;5073676;28;20044;-65
2021/12/21 04:16:06;;;;;;;11.63;3.92;;;3.80;99.90;;;;;;5072287;28;20055;-61
2021/12/21 04:18:38;;;;;;;16.20;3.95;;;3.80;99.90;;;;;;5073497;28;20041;-59
2021/12/21 04:21:09;;;;;;;16.27;3.92;;;3.80;99.90;;;;;;5073540;28;20484;-59
2021/12/21 04:23:36;;;;;;;10.88;3.92;;;3.80;99.90;;;;;;5073418;28;20048;-60
2021/12/21 04:26:04;;;;;;;12.13;3.53;;;3.80;99.90;;;;;;5073517;28;20044;-60
2021/12/21 04:28:32;;;;;;;14.65;3.70;;;3.80;99.90;;;;;;5072070;28;20055;-64
2021/12/21 04:31:00;;;;;;;16.20;3.88;;;3.80;99.90;;;;;;5073336;28;20499;-61
2021/12/21 04:33:28;;;;;;;8.10;3.08;;;3.80;99.90;;;;;;5071929;28;20048;-60
2021/12/21 04:35:56;;;;;;;8.50;3.25;;;3.70;99.90;;;;;;5073321;28;20045;-60
2021/12/21 04:38:30;;;;;;;10.55;3.15;;;3.80;99.90;;;;;;5073380;28;20048;-61
2021/12/21 04:41:09;;;;;;;9.18;3.28;;;3.70;99.90;;;;;;5073469;28;20044;-60
2021/12/21 04:43:38;;;;;;;10.57;3.15;;;3.70;99.90;;;;;;5072700;28;20067;-61
2021/12/21 04:46:07;;;;;;;13.40;3.28;;;3.70;99.90;;;;;;5073075;28;20044;-61
2021/12/21 04:48:35;;;;;;;18.92;3.72;;;3.70;99.90;;;;;;5071665;28;20064;-62
2021/12/21 04:51:03;;;;;;;12.25;3.42;;;3.70;99.90;;;;;;5072783;28;20048;-61
2021/12/21 04:53:31;;;;;;;11.98;2.63;;;3.70;99.90;;;;;;5071656;28;20044;-61
2021/12/21 04:55:59;;;;;;;15.02;3.20;;;3.70;99.90;;;;;;5072725;28;20041;-60
2021/12/21 04:58:27;;;;;;;9.95;2.92;;;3.80;99.90;;;;;;5072572;28;20055;-59
2021/12/21 05:00:55;;;;;;;12.10;3.03;;;3.70;99.90;;;;;;5072711;28;20044;-61
2021/12/21 05:03:24;;;;;;;9.52;2.22;;;3.70;99.90;;;;;;5072547;28;20048;-59
2021/12/21 05:05:52;;;;;;;13.13;2.60;;;3.70;99.90;;;;;;5071447;28;20032;-61
2021/12/21 05:08:31;;;;;;;4.05;2.00;;;3.70;99.90;;;;;;5072582;28;20053;-59
2021/12/21 05:11:03;;;;;;;13.20;2.20;;;3.70;99.90;;;;;;5072496;28;20044;-60
2021/12/21 05:13:34;;;;;;;9.65;2.63;;;3.70;99.90;;;;;;5072284;28;20040;-59
2021/12/21 05:16:02;;;;;;;11.80;3.22;;;3.70;99.90;;;;;;5071071;28;20045;-61
2021/12/21 05:18:32;;;;;;;17.60;3.28;;;3.60;99.90;;;;;;5072293;28;20055;-62
2021/12/21 05:21:00;;;;;;;;;;;3.60;99.90;;;;;;5072780;28;20511;-60
2021/12/21 05:23:27;;;;;;;8.57;3.13;;;3.60;99.90;;;;;;5070945;28;19943;-60
2021/12/21 05:25:55;;;;;;;11.70;2.85;;;3.60;99.90;;;;;;5072336;28;20507;-59
2021/12/21 05:28:23;;;;;;;10.30;2.25;;;3.60;99.90;;;;;;5072166;28;20055;-60
2021/12/21 05:30:51;;;;;;;12.75;2.33;;;3.50;99.90;;;;;;5071067;28;20052;-60
2021/12/21 05:33:18;;;;;;;11.02;2.97;;;3.50;99.90;;;;;;5072089;28;20052;-59
2021/12/21 05:35:47;;;;;;;14.07;2.65;;;3.50;99.90;;;;;;5072236;28;20041;-61
2021/12/21 05:38:23;;;;;;;7.45;2.08;;;3.50;99.90;;;;;;5072090;28;20040;-60
2021/12/21 05:40:50;;;;;;;6.82;2.83;;;3.50;99.90;;;;;;5070732;28;20055;-59
2021/12/21 05:43:18;;;;;;;9.80;2.28;;;3.50;99.90;;;;;;5071872;28;20067;-60
2021/12/21 05:45:46;;;;;;;10.15;2.25;;;3.50;99.90;;;;;;5070888;28;20053;-64
2021/12/21 05:48:13;;;;;;;7.47;2.67;;;3.50;99.90;;;;;;5056609;28;20388;-60
2021/12/21 05:50:41;;;;;;;9.13;2.20;;;3.50;99.90;;;;;;5046967;28;20060;-60
2021/12/21 05:53:09;;;;;;;5.30;1.95;;;3.50;99.90;;;;;;5048520;28;20045;-59
2021/12/21 05:55:37;;;;;;;11.30;2.58;;;3.40;99.90;;;;;;5063637;28;20040;-63
2021/12/21 05:58:05;;;;;;;9.93;2.70;;;3.50;99.90;;;;;;5065919;28;20066;-67
2021/12/21 06:00:34;;;;;;;9.48;2.53;;;3.50;99.90;;;;;;5088395;28;20405;-69
2021/12/21 06:03:02;;;;;;;10.55;2.72;;;3.50;99.90;;;;;;5062285;28;20049;-66
2021/12/21 06:05:30;;;;;;;15.35;2.47;;;3.50;99.90;;;;;;5065084;28;20045;-68
2021/12/21 06:07:58;;;;;;;8.75;2.28;;;3.50;99.90;;;;;;5073181;28;20513;-69
2021/12/21 06:10:31;;;;;;;8.00;2.88;;;3.40;99.90;;;;;;5088072;28;20048;-68
2021/12/21 06:26:03;;;;;;;10.90;3.45;;;3.50;99.90;;;;;;5085007;28;20074;-68
2021/12/21 06:28:32;;;;;;;8.55;3.65;;;3.40;99.90;;;;;;5084939;28;20274;-63
2021/12/21 06:31:00;;;;;;;11.68;3.38;;;3.40;99.90;;;;;;5087999;28;20471;-65
2021/12/21 06:33:27;;;;;;;8.43;4.05;;;3.50;99.90;;;;;;5065276;28;20068;-60
2021/12/21 06:35:55;;;;;;;11.25;4.28;;;3.40;99.90;;;;;;5044526;28;20056;-60
2021/12/21 06:38:23;;;;;;;13.88;4.35;;;3.40;99.90;;;;;;5068912;28;20518;-64
2021/12/21 06:40:52;;;;;;;14.35;4.30;;;3.40;99.90;;;;;;5088349;28;20051;-60
2021/12/21 06:43:20;;;;;;;10.80;4.38;;;3.40;99.90;;;;;;5087100;28;20052;-59
2021/12/21 06:45:56;;;;;;;11.32;5.78;;;3.40;99.90;;;;;;5088144;28;20052;-60
2021/12/21 06:51:31;;;;;;;14.97;4.53;;;3.40;99.90;;;;;;5047636;28;20040;-59
2021/12/21 06:53:59;;;;;;;10.68;4.22;;;3.40;99.90;;;;;;5083843;28;20293;-62
2021/12/21 06:56:28;;;;;;;12.15;4.43;;;3.40;99.90;;;;;;5087911;28;20498;-62
2021/12/21 06:58:56;;;;;;;24.70;5.13;;;3.40;99.90;;;;;;5088139;28;20044;-63
2021/12/21 07:01:28;;;;;;;12.25;4.97;;;3.40;99.90;;;;;;5091749;28;20047;-60
2021/12/21 07:03:58;;;;;;;16.65;5.10;;;3.40;99.90;;;;;;5078145;28;20057;-61
2021/12/21 07:06:26;;;;;;;14.27;5.43;;;3.40;99.90;;;;;;5071565;28;20422;-60
2021/12/21 07:09:10;;;;;;;9.95;3.97;;;3.40;99.90;;;;;;5086680;28;20056;-59
2021/12/21 07:11:46;;;;;;;14.95;4.35;;;3.40;99.90;;;;;;5090546;28;20048;-61
2021/12/21 07:19:51;;;;;;;15.57;5.07;;;3.30;99.90;;;;;;5053693;28;20037;-59
2021/12/21 07:22:24;;;;;;;10.15;4.57;;;3.40;99.90;;;;;;5054849;28;20055;-60
2021/12/21 07:24:51;;;;;;;13.57;5.70;;;3.30;99.90;;;;;;5069275;28;20049;-60
2021/12/21 07:27:19;;;;;;;12.90;4.13;;;3.40;99.90;;;;;;5071552;28;20040;-61
2021/12/21 07:29:48;;;;;;;11.77;4.70;;;3.30;99.90;;;;;;5091447;28;20392;-63
2021/12/21 07:32:16;;;;;;;11.50;5.67;;;3.30;99.90;;;;;;5088007;28;20364;-60
2021/12/21 07:34:44;;;;;;;11.70;5.50;;;3.30;99.90;;;;;;5053531;28;20463;-60
2021/12/21 07:37:12;;;;;;;9.57;4.68;;;3.30;99.90;;;;;;5050871;28;20051;-60
2021/12/21 07:39:40;;;;;;;11.13;5.00;;;3.30;99.90;;;;;;5091385;28;20044;-60
2021/12/21 07:42:18;;;;;;;14.02;5.43;;;3.30;99.90;;;;;;5090839;28;20209;-60
2021/12/21 07:44:47;;;;;;;16.08;5.68;;;3.30;99.90;;;;;;5090725;28;20066;-62
2021/12/21 07:47:17;;;;;;;13.40;4.40;;;3.30;99.90;;;;;;5090830;28;20055;-60
2021/12/21 07:49:45;;;;;;;11.90;5.07;;;3.20;99.90;;;;;;5057878;28;20188;-60
2021/12/21 07:52:13;;;;;;;16.95;4.63;;;3.30;99.90;;;;;;5054979;28;20071;-60
2021/12/21 07:54:41;;;;;;;13.52;5.30;;;3.30;99.90;;;;;;5090842;28;20056;-61
2021/12/21 07:57:09;;;;;;;19.67;5.35;;;3.30;99.90;;;;;;5090784;28;20048;-60
2021/12/21 07:59:40;;;;;;;9.27;4.50;;;3.30;99.90;;;;;;5090584;28;20521;-60
2021/12/21 08:02:12;;;;;;;13.20;5.43;;;3.20;99.90;;;;;;5088001;28;20052;-60
2021/12/21 08:04:42;;;;;;;12.60;5.13;;;3.20;99.90;;;;;;5058661;28;20060;-65
2021/12/21 08:07:16;;;;;;;14.50;4.78;;;3.20;99.90;;;;;;5049753;28;20072;-63
2021/12/21 08:09:47;;;;;;;18.40;5.18;;;3.20;99.90;;;;;;5089782;28;20060;-61
2021/12/21 08:12:17;;;;;;;14.77;4.75;;;3.20;99.90;;;;;;5088941;28;20391;-62
2021/12/21 08:14:47;;;;;;;16.25;5.10;;;3.20;99.90;;;;;;5088868;28;20048;-61
2021/12/21 08:17:15;;;;;;;;;;;3.20;99.90;;;;;;5090424;28;20503;-60
2021/12/21 08:19:45;;;;;;;18.25;6.00;;;3.20;99.90;;;;;;5062349;28;19920;-68
2021/12/21 08:22:13;;;;;;;13.60;4.90;;;3.30;99.90;;;;;;5055335;28;20595;-67
2021/12/21 08:24:42;;;;;;;13.30;5.43;;;3.30;99.90;;;;;;5090341;28;20043;-69
2021/12/21 08:27:10;;;;;;;13.82;5.88;;;3.30;99.90;;;;;;5090339;28;20472;-66
2021/12/21 08:29:38;;;;;;;10.70;4.97;;;3.30;99.90;;;;;;5090619;28;20052;-68
2021/12/21 08:32:07;;;;;;;16.25;5.60;;;3.30;99.90;;;;;;5088509;28;20368;-67
2021/12/21 08:34:35;;;;;;;13.90;5.20;;;3.20;99.90;;;;;;5056783;28;20048;-64
2021/12/21 08:37:03;;;;;;;15.43;5.55;;;3.30;99.90;;;;;;5049829;28;20496;-67
2021/12/21 08:39:38;;;;;;;15.45;5.30;;;3.30;99.90;;;;;;5088515;28;20044;-68
2021/12/21 08:42:11;;;;;;;19.05;6.22;;;3.20;99.90;;;;;;5089661;28;20044;-69
2021/12/21 08:44:43;;;;;;;18.45;7.78;;;3.30;99.90;;;;;;5089536;28;20056;-64
2021/12/21 08:47:15;;;;;;;13.43;6.20;;;3.30;99.90;;;;;;5089728;28;20047;-66
2021/12/21 08:49:46;;;;;;;10.02;5.25;;;3.30;99.90;;;;;;5065500;28;20045;-68
2021/12/21 08:52:14;;;;;;;16.55;5.97;;;3.20;99.90;;;;;;5054994;28;21118;-68
2021/12/21 08:54:43;;;;;;;15.05;5.70;;;3.30;99.90;;;;;;5088253;28;20487;-70
2021/12/21 08:57:10;;;;;;;13.07;5.45;;;3.30;99.90;;;;;;5089385;28;20475;-68
2021/12/21 08:59:38;;;;;;;22.63;7.32;;;3.30;99.90;;;;;;5088166;28;20455;-69
2021/12/21 09:02:07;;;;;;;10.68;5.97;;;3.30;99.90;;;;;;5071243;28;20048;-62
2021/12/21 09:04:35;;;;;;;17.75;6.78;;;3.30;99.90;;;;;;5070368;28;20041;-65
2021/12/21 09:07:04;;;;;;;24.08;6.38;;;3.40;99.90;;;;;;5049008;28;20400;-63
2021/12/21 09:09:31;;;;;;;15.43;6.45;;;3.40;99.90;;;;;;5089015;28;20408;-60
2021/12/21 09:11:59;;;;;;;15.07;6.32;;;3.40;99.90;;;;;;5089196;28;20187;-60
2021/12/21 09:14:31;;;;;;;16.13;6.78;;;3.40;99.90;;;;;;5088015;28;20050;-59
2021/12/21 09:17:01;;;;;;;21.20;7.22;;;3.50;99.90;;;;;;5089156;28;20215;-61
2021/12/21 09:19:29;;;;;;;21.33;8.10;;;3.40;99.90;;;;;;5059661;28;20045;-61
2021/12/21 09:22:01;;;;;;;14.88;6.57;;;3.50;99.90;;;;;;5049195;28;20037;-60
2021/12/21 09:24:29;;;;;;;17.92;5.88;;;3.40;99.90;;;;;;5088925;28;20043;-61
2021/12/21 09:26:57;;;;;;;18.52;6.97;;;3.40;99.90;;;;;;5089102;28;20044;-62
2021/12/21 09:29:24;;;;;;;18.30;6.78;;;3.40;99.90;;;;;;5087078;28;20051;-60
2021/12/21 09:31:52;;;;;;;14.07;6.40;;;3.40;99.90;;;;;;5089036;28;20186;-59
2021/12/21 09:34:20;;;;;;;12.20;6.10;;;3.40;99.90;;;;;;5077381;28;20072;-60
2021/12/21 09:36:47;;;;;;;15.75;6.88;;;3.40;99.90;;;;;;5048445;28;20049;-61
2021/12/21 09:39:15;;;;;;;13.88;6.00;;;3.40;99.90;;;;;;5082624;28;20425;-60
2021/12/21 09:41:44;;;;;;;17.35;5.93;;;3.50;99.90;;;;;;5087780;28;20052;-60
2021/12/21 09:44:12;;;;;;;19.25;6.25;;;3.50;99.90;;;;;;5088288;28;20488;-60
2021/12/21 09:46:40;;;;;;;19.52;7.13;;;3.50;99.90;;;;;;5088579;28;20047;-61
2021/12/21 09:49:09;;;;;;;22.90;7.00;;;3.50;99.90;;;;;;5082800;28;20045;-59
2021/12/21 09:51:36;;;;;;;14.63;6.15;;;3.60;99.90;;;;;;5048458;28;20479;-59
2021/12/21 09:54:04;;;;;;;14.93;6.50;;;3.60;99.90;;;;;;5084510;28;20048;-60
2021/12/21 09:56:33;;;;;;;13.15;6.20;;;3.60;99.90;;;;;;5087157;28;20515;-59
2021/12/21 09:59:01;;;;;;;16.02;6.07;;;3.60;99.90;;;;;;5086828;28;20052;-65
2021/12/21 10:01:29;;;;;;;13.70;5.38;;;3.60;99.90;;;;;;5088244;28;20048;-60
2021/12/21 10:03:57;;;;;;;14.60;5.97;;;3.60;99.90;;;;;;5086670;28;20040;-59
2021/12/21 10:06:25;;;;;;;14.63;5.35;;;3.60;99.90;;;;;;5046929;28;20520;-59
2021/12/21 10:09:05;;;;;;;16.85;5.40;;;3.60;99.90;;;;;;5075782;28;20040;-59
2021/12/21 10:11:40;;;;;;;;;;;3.60;99.90;;;;;;5089116;28;20055;-60
2021/12/21 10:14:08;;;;;;;17.88;5.05;;;3.60;99.90;;;;;;5086889;28;19920;-62
2021/12/21 10:16:36;;;;;;;18.63;6.00;;;3.60;99.90;;;;;;5087026;28;20044;-60
2021/12/21 10:19:07;;;;;;;16.50;5.13;;;3.70;99.90;;;;;;5086695;28;20479;-62
2021/12/21 10:21:45;;;;;;;11.48;4.32;;;3.70;99.90;;;;;;5048099;28;20045;-59
2021/12/21 10:24:27;;;;;;;17.20;4.53;;;3.70;99.90;;;;;;5084781;28;20040;-61
2021/12/21 10:27:07;;;;;;;10.68;5.13;;;3.80;99.90;;;;;;5086769;28;20059;-59
2021/12/21 10:29:50;;;;;;;19.85;5.15;;;3.80;99.90;;;;;;5086783;28;20047;-61
2021/12/21 10:32:20;;;;;;;17.58;5.05;;;3.80;99.90;;;;;;5087832;28;20048;-60
2021/12/21 10:34:57;;;;;;;14.88;4.88;;;3.80;99.90;;;;;;5080213;28;20242;-60
2021/12/21 10:37:33;;;;;;;12.63;4.18;;;3.90;99.90;;;;;;5056235;28;20068;-60
2021/12/21 10:40:22;;;;;;;12.23;3.72;;;3.90;99.90;;;;;;5090843;28;20055;-59
2021/12/21 10:42:52;;;;;;;;;;;3.90;99.90;;;;;;5092519;28;20051;-61
2021/12/21 10:45:41;;;;;;;10.95;3.45;;;3.80;99.90;;;;;;5091873;28;19931;-61
2021/12/21 10:48:16;;;;;;;11.85;2.92;;;3.90;99.90;;;;;;5091918;28;20484;-60
2021/12/21 10:50:45;;;;;;;13.52;3.22;;;3.90;99.90;;;;;;5065761;28;20056;-64
2021/12/21 10:53:44;;;;;;;14.93;4.20;;;3.90;99.90;;;;;;5071830;28;20048;-63
2021/12/21 10:56:17;;;;;;;12.80;3.38;;;3.90;99.90;;;;;;5090963;28;20074;-69
2021/12/21 10:58:46;;;;;;;13.15;2.97;;;4.00;99.90;;;;;;5090489;28;20395;-66
2021/12/21 11:01:25;;;;;;;18.83;3.50;;;4.00;99.90;;;;;;5090362;28;20044;-64
2021/12/21 11:03:56;;;;;;;11.60;3.03;;;4.10;99.90;;;;;;5091488;28;20909;-65
2021/12/21 11:06:30;;;;;;;10.07;3.30;;;4.10;99.90;;;;;;5055371;28;20511;-67
2021/12/21 11:08:58;;;;;;;10.48;3.20;;;4.10;99.90;;;;;;5080096;28;20396;-63
2021/12/21 11:11:32;;;;;;;18.27;3.80;;;4.10;99.90;;;;;;5091081;28;20052;-68
2021/12/21 11:14:12;;;;;;;14.73;3.13;;;4.20;99.90;;;;;;5091079;28;20040;-60
2021/12/21 11:16:50;;;;;;;;;;;4.30;99.90;;;;;;5092039;28;20047;-67
2021/12/21 11:19:20;;;;;;;13.20;3.10;;;4.40;99.90;;;;;;5091629;28;19924;-65
2021/12/21 11:21:49;;;;;;;16.05;4.20;;;4.40;99.90;;;;;;5051648;28;20056;-61
2021/12/21 11:24:20;;;;;;;17.85;3.90;;;4.50;99.90;;;;;;5088862;28;20048;-69
2021/12/21 11:26:48;;;;;;;8.63;3.30;;;4.50;99.90;;;;;;5091476;28;20048;-66
2021/12/21 11:29:18;;;;;;;10.50;3.53;;;4.50;99.90;;;;;;5090479;28;20051;-60
2021/12/21 11:32:06;;;;;;;;;;;4.50;99.90;;;;;;5089964;28;20297;-60
2021/12/21 11:34:46;;;;;;;15.55;3.67;;;4.50;99.90;;;;;;5085823;28;19930;-63
2021/12/21 11:37:21;;;;;;;9.50;3.45;;;4.50;99.90;;;;;;5033108;28;20053;-60
2021/12/21 11:39:49;;;;;;;9.63;3.65;;;4.50;99.90;;;;;;5089979;28;20044;-59
2021/12/21 11:42:38;;;;;;;9.02;3.45;;;4.50;99.90;;;;;;5090820;28;20047;-61
2021/12/21 11:45:19;;;;;;;10.20;2.88;;;4.60;99.90;;;;;;5088800;28;20411;-60
2021/12/21 11:47:53;;;;;;;12.90;3.05;;;4.60;99.90;;;;;;5090794;28;20048;-60
2021/12/21 11:50:22;;;;;;;16.65;3.55;;;4.60;99.90;;;;;;5077475;28;20053;-60
2021/12/21 11:52:52;;;;;;;9.48;2.45;;;4.60;99.90;;;;;;5063744;28;20051;-60
2021/12/21 11:55:24;;;;;;;16.55;3.17;;;4.60;99.90;;;;;;5090515;28;20055;-60
2021/12/21 11:58:01;;;;;;;14.65;2.83;;;4.60;99.90;;;;;;5090291;28;20518;-60
2021/12/21 12:00:33;;;;;;;8.45;2.70;;;4.60;99.90;;;;;;5089642;28;20044;-59
2021/12/21 12:03:12;;;;;;;12.02;3.67;;;4.60;99.90;;;;;;5088963;28;20052;-61
2021/12/21 12:05:50;;;;;;;13.75;2.90;;;4.60;99.90;;;;;;5073327;28;20052;-59
2021/12/21 12:08:18;;;;;;;15.88;2.75;;;4.60;99.90;;;;;;5067135;28;20048;-61
2021/12/21 12:11:00;;;;;;;10.10;3.80;;;4.60;99.90;;;;;;5090538;28;20048;-62
2021/12/21 12:13:40;;;;;;;10.10;2.35;;;4.70;99.90;;;;;;5076649;28;20056;-62
2021/12/21 12:16:11;;;;;;;13.82;3.28;;;4.70;99.90;;;;;;5070295;28;20053;-61
2021/12/21 12:18:49;;;;;;;11.65;3.25;;;4.70;99.90;;;;;;5081949;28;20051;-61
2021/12/21 12:21:22;;;;;;;11.48;2.95;;;4.70;99.90;;;;;;5064603;28;20052;-59
2021/12/21 12:23:53;;;;;;;9.18;2.85;;;4.70;99.90;;;;;;5080053;28;20044;-59
2021/12/21 12:26:28;;;;;;;12.27;3.25;;;4.70;99.90;;;;;;5090436;28;20032;-59
2021/12/21 12:29:14;;;;;;;16.95;3.78;;;4.70;99.90;;;;;;5090248;28;20059;-59
2021/12/21 12:31:47;;;;;;;15.75;4.07;;;4.70;99.90;;;;;;5090055;28;20169;-61
2021/12/21 12:34:26;;;;;;;10.63;3.58;;;4.70;99.90;;;;;;5089753;28;20510;-60
2021/12/21 12:36:55;;;;;;;11.43;3.97;;;4.70;99.90;;;;;;5056457;28;20120;-59
2021/12/21 12:39:39;;;;;;;9.50;3.35;;;4.60;99.90;;;;;;5085594;28;20472;-59
2021/12/21 12:42:13;;;;;;;18.35;3.53;;;4.70;99.90;;;;;;5089372;28;20059;-60
2021/12/21 12:44:43;;;;;;;13.30;3.15;;;4.70;99.90;;;;;;5089820;28;20060;-61
2021/12/21 12:47:13;;;;;;;15.48;4.57;;;4.70;99.90;;;;;;5088015;28;20134;-59
2021/12/21 12:49:49;;;;;;;19.55;4.60;;;4.60;99.90;;;;;;5088490;28;20041;-62
2021/12/21 12:52:30;;;;;;;13.27;4.22;;;4.60;99.90;;;;;;5054624;28;20040;-60
2021/12/21 12:55:02;;;;;;;11.00;3.08;;;4.60;99.90;;;;;;5088374;28;20043;-68
2021/12/21 12:57:39;;;;;;;9.15;3.10;;;4.60;99.90;;;;;;5069965;28;20045;-59
2021/12/21 13:00:10;;;;;;;12.73;3.17;;;4.70;99.90;;;;;;5089348;28;20048;-59
2021/12/21 13:02:39;;;;;;;13.05;3.67;;;4.70;99.90;;;;;;5088746;28;20036;-64
2021/12/21 13:05:10;;;;;;;9.95;2.90;;;4.70;99.90;;;;;;5074056;28;20052;-59
2021/12/21 13:07:38;;;;;;;9.27;3.63;;;4.70;99.90;;;;;;5056081;28;20044;-60
2021/12/21 13:10:10;;;;;;;6.95;3.67;;;4.70;99.90;;;;;;5070916;28;20056;-62
2021/12/21 13:12:38;;;;;;;18.40;3.80;;;4.60;99.90;;;;;;5088029;28;20048;-60
2021/12/21 13:15:07;;;;;;;10.20;4.10;;;4.60;99.90;;;;;;5089328;28;20048;-67
2021/12/21 13:17:35;;;;;;;10.43;4.17;;;4.60;99.90;;;;;;5089322;28;20055;-64
2021/12/21 13:20:04;;;;;;;15.32;4.57;;;4.60;99.90;;;;;;5086515;28;20051;-66
2021/12/21 13:22:32;;;;;;;14.43;4.30;;;4.60;99.90;;;;;;5070627;28;20040;-64
2021/12/21 13:24:59;;;;;;;12.32;3.60;;;4.60;99.90;;;;;;5087018;28;20617;-63
2021/12/21 13:27:27;;;;;;;10.85;4.07;;;4.60;99.90;;;;;;5087221;28;20051;-64
2021/12/21 13:29:57;;;;;;;12.60;4.13;;;4.60;99.90;;;;;;5069409;28;20044;-64
2021/12/21 13:32:34;;;;;;;13.05;4.43;;;4.60;99.90;;;;;;5087052;28;20087;-62
2021/12/21 13:35:02;;;;;;;11.38;3.63;;;4.60;99.90;;;;;;5087981;28;20040;-65
2021/12/21 13:37:33;;;;;;;15.70;4.72;;;4.60;99.90;;;;;;5057320;28;20049;-68
2021/12/21 13:40:02;;;;;;;15.35;4.00;;;4.60;99.90;;;;;;5087695;28;20518;-68
2021/12/21 13:42:31;;;;;;;11.30;3.50;;;4.60;99.90;;;;;;5088451;28;20050;-66
2021/12/21 13:45:05;;;;;;;11.27;3.55;;;4.50;99.90;;;;;;5087308;28;20407;-62
2021/12/21 13:47:43;;;;;;;13.65;4.03;;;4.50;99.90;;;;;;5087261;28;20055;-60
2021/12/21 13:50:16;;;;;;;12.32;4.47;;;4.60;99.90;;;;;;5088220;28;20502;-65
2021/12/21 13:52:47;;;;;;;11.43;5.50;;;4.60;99.90;;;;;;5061679;28;20051;-66
2021/12/21 13:55:36;;;;;;;14.70;4.65;;;4.60;99.90;;;;;;5088540;28;20047;-64
2021/12/21 13:58:07;;;;;;;13.15;4.35;;;4.60;99.90;;;;;;5086924;28;20399;-70
2021/12/21 14:00:54;;;;;;;9.90;3.88;;;4.60;99.90;;;;;;5087370;28;20044;-61
2021/12/21 14:06:08;;;;;;;12.02;3.30;;;4.60;99.90;;;;;;5084381;28;20044;-59
2021/12/21 14:08:43;;;;;;;14.85;4.40;;;4.60;99.90;;;;;;5079300;28;20059;-59
2021/12/21 14:11:13;;;;;;;11.45;3.95;;;4.60;99.90;;;;;;5088234;28;20048;-62
2021/12/21 14:13:46;;;;;;;12.38;4.95;;;4.60;99.90;;;;;;5087867;28;20063;-61
2021/12/21 14:16:19;;;;;;;11.25;3.20;;;4.60;99.90;;;;;;5070909;28;20043;-61
2021/12/21 14:18:57;;;;;;;12.75;4.00;;;4.60;99.90;;;;;;5086766;28;20060;-60
2021/12/21 14:21:31;;;;;;;12.85;3.22;;;4.70;99.90;;;;;;5076359;28;20060;-61
2021/12/21 14:24:02;;;;;;;11.00;3.80;;;4.70;99.90;;;;;;5077158;28;20055;-64
2021/12/21 14:26:38;;;;;;;10.48;3.53;;;4.70;99.90;;;;;;5088133;28;20491;-61
2021/12/21 14:29:08;;;;;;;11.00;3.42;;;4.70;99.90;;;;;;5086050;28;20415;-61
2021/12/21 14:31:46;;;;;;;9.85;3.35;;;4.70;99.90;;;;;;5048023;28;20396;-60
2021/12/21 14:34:28;;;;;;;7.80;2.70;;;4.70;99.90;;;;;;5068349;28;20569;-60
2021/12/21 14:36:57;;;;;;;19.00;5.28;;;4.70;99.90;;;;;;5058395;28;20424;-63
2021/12/21 14:39:31;;;;;;;10.38;3.67;;;4.70;99.90;;;;;;5083357;28;20059;-62
2021/12/21 14:42:06;;;;;;;21.38;3.83;;;4.70;99.90;;;;;;5086997;28;20471;-68
2021/12/21 14:44:52;;;;;;;11.05;2.90;;;4.70;99.90;;;;;;5086450;28;20411;-70
2021/12/21 14:47:24;;;;;;;9.40;3.80;;;4.70;99.90;;;;;;5087674;28;20071;-61
2021/12/21 14:50:04;;;;;;;16.67;4.05;;;4.70;99.90;;;;;;5088009;28;20044;-63
2021/12/21 14:52:41;;;;;;;11.85;3.60;;;4.60;99.90;;;;;;5067926;28;20069;-61
2021/12/21 14:55:17;;;;;;;12.63;3.60;;;4.60;99.90;;;;;;5088072;28;20047;-60